createdAt,value
2019-05-26T00:02:25.394Z,89.52
2019-05-26T00:06:27.338Z,89.74
2019-05-26T00:10:29.297Z,89.43
2019-05-26T00:14:31.282Z,89.61
2019-05-26T00:18:33.675Z,89.75
2019-05-26T00:22:35.662Z,89.97
2019-05-26T00:26:38.713Z,89.71
2019-05-26T00:30:40.661Z,89.62
2019-05-26T00:34:42.612Z,89.15
2019-05-26T00:38:44.578Z,89.39
2019-05-26T00:42:46.520Z,90.08
2019-05-26T00:46:48.556Z,89.98
2019-05-26T00:50:50.679Z,89.88
2019-05-26T00:54:52.752Z,89.72
2019-05-26T00:58:54.866Z,89.25
2019-05-26T01:02:56.825Z,89.29
2019-05-26T01:06:58.798Z,89.52
2019-05-26T01:11:01.597Z,89.62
2019-05-26T01:15:04.580Z,89.34
2019-05-26T01:19:06.731Z,89.46
2019-05-26T01:23:08.696Z,89.35
2019-05-26T01:27:10.646Z,88.52
2019-05-26T01:31:13.671Z,89.58
2019-05-26T01:35:15.782Z,89.92
2019-05-26T01:39:17.744Z,90.42
2019-05-26T01:43:19.692Z,90.04
2019-05-26T01:47:21.670Z,89.67
2019-05-26T01:51:23.689Z,89.60
2019-05-26T01:55:25.640Z,89.26
2019-05-26T01:59:28.557Z,89.45
2019-05-26T02:03:31.463Z,88.78
2019-05-26T02:07:33.658Z,89.26
2019-05-26T02:11:35.647Z,89.87
2019-05-26T02:15:37.668Z,89.79
2019-05-26T02:19:39.584Z,89.49
2019-05-26T02:23:41.497Z,88.79
2019-05-26T02:27:43.417Z,88.45
2019-05-26T02:31:45.428Z,88.25
2019-05-26T02:35:47.356Z,88.55
2019-05-26T02:39:49.273Z,88.94
2019-05-26T02:43:51.246Z,89.37
2019-05-26T02:47:53.146Z,88.90
2019-05-26T02:51:55.091Z,88.87
2019-05-26T02:55:57.376Z,88.34
2019-05-26T02:59:59.286Z,88.41
2019-05-26T03:04:01.615Z,90.71
2019-05-26T03:08:05.850Z,91.86
2019-05-26T03:12:08.620Z,91.79
2019-05-26T03:16:12.250Z,92.22
2019-05-26T03:20:17.568Z,90.61
2019-05-26T03:24:21.338Z,90.57
2019-05-26T03:28:23.266Z,90.69
2019-05-26T03:32:25.185Z,90.67
2019-05-26T03:36:27.134Z,90.64
2019-05-26T03:40:29.072Z,90.26
2019-05-26T03:44:30.993Z,90.33
2019-05-26T03:48:32.900Z,90.39
2019-05-26T03:52:34.805Z,89.88
2019-05-26T03:56:36.712Z,89.91
2019-05-26T04:00:38.609Z,89.80
2019-05-26T04:04:40.554Z,89.63
2019-05-26T04:08:42.512Z,89.43
2019-05-26T04:12:44.414Z,89.00
2019-05-26T04:16:47.068Z,89.55
2019-05-26T04:20:48.980Z,89.14
2019-05-26T04:24:51.952Z,89.66
2019-05-26T04:28:53.884Z,89.60
2019-05-26T04:32:55.823Z,89.79
2019-05-26T04:36:57.710Z,90.30
2019-05-26T04:40:59.632Z,90.48
2019-05-26T04:45:01.550Z,90.50
2019-05-26T04:49:04.716Z,90.17
2019-05-26T04:53:07.427Z,89.75
2019-05-26T04:57:09.462Z,90.14
2019-05-26T05:01:11.454Z,90.51
2019-05-26T05:05:14.055Z,91.26
2019-05-26T05:09:16.057Z,91.03
2019-05-26T05:13:18.058Z,91.12
2019-05-26T05:17:19.996Z,90.90
2019-05-26T05:21:21.948Z,90.77
2019-05-26T05:25:23.875Z,90.92
2019-05-26T05:29:25.802Z,91.10
2019-05-26T05:33:27.759Z,91.08
2019-05-26T05:37:29.693Z,91.19
2019-05-26T05:41:31.615Z,91.37
2019-05-26T05:45:33.573Z,91.75
2019-05-26T05:49:35.503Z,91.95
2019-05-26T05:53:37.526Z,92.40
2019-05-26T05:57:39.448Z,92.39
2019-05-26T06:01:41.380Z,92.10
2019-05-26T06:05:43.305Z,92.31
2019-05-26T06:09:45.273Z,91.88
2019-05-26T06:13:47.167Z,91.42
2019-05-26T06:17:49.154Z,90.20
2019-05-26T06:21:51.180Z,89.78
2019-05-26T06:25:53.215Z,89.04
2019-05-26T06:29:58.718Z,88.69
2019-05-26T06:33:58.764Z,87.40
2019-05-26T06:38:00.694Z,86.22
2019-05-26T06:42:02.753Z,84.84
2019-05-26T06:46:04.862Z,83.14
2019-05-26T06:50:07.999Z,81.33
2019-05-26T06:54:09.920Z,82.57
2019-05-26T06:58:11.840Z,81.29
2019-05-26T07:02:14.540Z,82.13
2019-05-26T07:06:16.469Z,82.51
2019-05-26T07:10:18.670Z,80.90
2019-05-26T07:14:20.582Z,81.48
2019-05-26T07:18:22.847Z,79.90
2019-05-26T07:22:24.762Z,81.12
2019-05-26T07:26:26.699Z,80.94
2019-05-26T07:30:29.581Z,81.02
2019-05-26T07:34:31.499Z,79.07
2019-05-26T07:38:33.420Z,77.62
2019-05-26T07:42:35.904Z,76.93
2019-05-26T07:46:37.820Z,78.01
2019-05-26T07:50:39.745Z,76.91
2019-05-26T07:54:41.745Z,77.29
2019-05-26T07:58:43.683Z,75.65
2019-05-26T08:02:45.612Z,74.56
2019-05-26T08:06:47.545Z,69.94
2019-05-26T08:10:49.746Z,71.84
2019-05-26T08:14:51.634Z,68.56
2019-05-26T08:18:53.550Z,67.55
2019-05-26T08:22:55.458Z,68.18
2019-05-26T08:26:57.387Z,67.09
2019-05-26T08:30:59.318Z,65.42
2019-05-26T08:35:01.862Z,66.19
2019-05-26T08:39:05.464Z,61.98
2019-05-26T08:43:07.471Z,60.01
2019-05-26T08:47:09.395Z,62.39
2019-05-26T08:51:11.315Z,60.02
2019-05-26T08:55:14.415Z,58.33
2019-05-26T08:59:17.295Z,58.98
2019-05-26T09:03:19.204Z,58.33
2019-05-26T09:07:21.178Z,56.04
2019-05-26T09:11:24.305Z,56.47
2019-05-26T09:15:26.256Z,57.78
2019-05-26T09:19:28.147Z,56.83
2019-05-26T09:23:33.583Z,54.94
2019-05-26T09:27:35.499Z,55.47
2019-05-26T09:31:38.853Z,50.57
2019-05-26T09:35:40.817Z,51.11
2019-05-26T09:39:42.739Z,49.63
2019-05-26T09:43:44.638Z,49.38
2019-05-26T09:47:47.900Z,43.68
2019-05-26T09:51:49.800Z,43.21
2019-05-26T09:55:51.707Z,43.79
2019-05-26T09:59:53.696Z,44.83
2019-05-26T10:03:55.610Z,42.74
2019-05-26T10:07:57.521Z,45.47
2019-05-26T10:11:59.434Z,40.93
2019-05-26T10:16:01.588Z,43.90
2019-05-26T10:20:05.314Z,42.09
2019-05-26T10:24:07.430Z,40.75
2019-05-26T10:28:09.342Z,42.55
2019-05-26T10:32:11.331Z,42.79
2019-05-26T10:36:14.308Z,42.22
2019-05-26T10:40:16.686Z,42.23
2019-05-26T10:44:18.584Z,41.39
2019-05-26T10:48:20.498Z,41.05
2019-05-26T10:52:22.410Z,40.94
2019-05-26T10:56:24.381Z,40.11
2019-05-26T11:00:26.676Z,40.47
2019-05-26T11:04:28.669Z,39.85
2019-05-26T11:08:30.586Z,40.99
2019-05-26T11:12:33.470Z,40.27
2019-05-26T11:16:35.482Z,38.35
2019-05-26T11:20:37.543Z,35.41
2019-05-26T11:24:40.100Z,38.93
2019-05-26T11:28:43.084Z,40.07
2019-05-26T11:32:44.984Z,40.85
2019-05-26T11:36:46.926Z,42.14
2019-05-26T11:40:48.889Z,41.70
2019-05-26T11:44:50.833Z,40.44
2019-05-26T11:48:53.099Z,38.94
2019-05-26T11:52:56.021Z,39.54
2019-05-26T11:56:57.932Z,39.22
2019-05-26T12:00:59.850Z,38.06
2019-05-26T12:05:01.796Z,37.24
2019-05-26T12:09:05.495Z,37.47
2019-05-26T12:13:07.387Z,35.53
2019-05-26T12:17:09.309Z,35.12
2019-05-26T12:21:11.238Z,35.91
2019-05-26T12:25:14.908Z,38.22
2019-05-26T12:29:16.835Z,37.37
2019-05-26T12:33:18.730Z,38.38
2019-05-26T12:37:21.630Z,36.55
2019-05-26T12:41:23.982Z,35.74
2019-05-26T12:45:25.957Z,35.82
2019-05-26T12:49:28.127Z,34.09
2019-05-26T12:53:30.055Z,34.78
2019-05-26T12:57:32.091Z,35.26
2019-05-26T13:01:34.181Z,31.94
2019-05-26T13:05:36.118Z,32.19
2019-05-26T13:09:38.132Z,33.20
2019-05-26T13:13:40.045Z,33.47
2019-05-26T13:17:42.085Z,35.86
2019-05-26T13:21:43.988Z,35.92
2019-05-26T13:25:45.911Z,34.60
2019-05-26T13:29:47.834Z,33.12
2019-05-26T13:33:49.745Z,32.81
2019-05-26T13:37:51.874Z,34.81
2019-05-26T13:41:53.781Z,33.95
2019-05-26T13:46:07.824Z,32.77
2019-05-26T13:50:10.762Z,33.35
2019-05-26T13:54:13.933Z,31.84
2019-05-26T13:58:15.931Z,30.22
2019-05-26T14:02:17.857Z,31.60
2019-05-26T14:06:19.780Z,31.25
2019-05-26T14:10:38.858Z,32.37
2019-05-26T14:14:41.521Z,33.73
2019-05-26T14:18:45.739Z,31.90
2019-05-26T14:22:47.657Z,30.31
2019-05-26T14:26:49.564Z,31.33
2019-05-26T14:30:51.498Z,32.17
2019-05-26T14:34:53.398Z,31.04
2019-05-26T14:38:55.315Z,33.04
2019-05-26T14:42:57.519Z,31.91
2019-05-26T14:46:59.613Z,32.87
2019-05-26T14:51:01.548Z,30.77
2019-05-26T14:55:03.518Z,30.82
2019-05-26T14:59:05.508Z,30.78
2019-05-26T15:03:07.440Z,30.39
2019-05-26T15:07:09.444Z,31.65
2019-05-26T15:11:11.340Z,32.50
2019-05-26T15:15:15.436Z,33.46
2019-05-26T15:19:17.332Z,34.08
2019-05-26T15:23:19.247Z,34.07
2019-05-26T15:27:21.187Z,32.40
2019-05-26T15:31:23.189Z,33.36
2019-05-26T15:35:26.359Z,32.65
2019-05-26T15:39:28.361Z,32.74
2019-05-26T15:43:31.718Z,34.77
2019-05-26T15:47:34.677Z,34.53
2019-05-26T15:51:36.634Z,35.28
2019-05-26T15:55:40.118Z,35.39
2019-05-26T15:59:42.263Z,34.14
2019-05-26T16:03:44.181Z,33.16
2019-05-26T16:07:46.093Z,32.52
2019-05-26T16:11:48.006Z,33.80
2019-05-26T16:15:49.934Z,34.64
2019-05-26T16:19:51.910Z,34.15
2019-05-26T16:23:53.817Z,34.71
2019-05-26T16:27:55.741Z,32.84
2019-05-26T16:31:57.646Z,33.61
2019-05-26T16:35:59.550Z,32.55
2019-05-26T16:40:01.520Z,32.11
2019-05-26T16:44:04.909Z,32.85
2019-05-26T16:48:06.829Z,33.47
2019-05-26T16:52:10.087Z,34.30
2019-05-26T16:56:12.008Z,34.47
2019-05-26T17:00:14.869Z,33.96
2019-05-26T17:04:16.833Z,34.83
2019-05-26T17:08:19.477Z,35.32
2019-05-26T17:12:21.369Z,34.59
2019-05-26T17:16:23.305Z,34.43
2019-05-26T17:20:25.295Z,36.04
2019-05-26T17:24:28.391Z,35.90
2019-05-26T17:28:30.310Z,36.78
2019-05-26T17:32:32.245Z,36.97
2019-05-26T17:36:34.168Z,37.69
2019-05-26T17:40:36.090Z,37.62
2019-05-26T17:44:37.991Z,37.89
2019-05-26T17:48:39.912Z,38.44
2019-05-26T17:52:41.862Z,38.13
2019-05-26T17:56:43.833Z,38.40
2019-05-26T18:00:45.723Z,39.44
2019-05-26T18:04:47.668Z,40.82
2019-05-26T18:08:49.575Z,42.81
2019-05-26T18:12:51.506Z,42.07
2019-05-26T18:16:53.413Z,42.08
2019-05-26T18:20:55.352Z,43.75
2019-05-26T18:24:58.947Z,44.22
2019-05-26T18:29:00.891Z,45.21
2019-05-26T18:33:02.827Z,45.76
2019-05-26T18:37:05.117Z,46.65
2019-05-26T18:41:07.902Z,47.96
2019-05-26T18:45:11.821Z,49.60
2019-05-26T18:49:14.211Z,50.53
2019-05-26T18:53:16.178Z,50.90
2019-05-26T18:57:18.076Z,51.83
2019-05-26T19:01:20.119Z,52.09
2019-05-26T19:05:32.846Z,51.83
2019-05-26T19:09:25.623Z,52.05
2019-05-26T19:13:27.572Z,52.70
2019-05-26T19:17:29.487Z,53.71
2019-05-26T19:21:31.427Z,54.69
2019-05-26T19:25:33.337Z,55.04
2019-05-26T19:29:35.300Z,55.72
2019-05-26T19:33:37.231Z,56.18
2019-05-26T19:37:39.177Z,56.60
2019-05-26T19:41:41.082Z,57.08
2019-05-26T19:45:43.950Z,57.52
2019-05-26T19:49:45.889Z,58.29
2019-05-26T19:53:47.784Z,58.95
2019-05-26T19:57:49.869Z,59.49
2019-05-26T20:01:51.780Z,60.52
2019-05-26T20:05:54.669Z,60.92
2019-05-26T20:09:56.594Z,61.31
2019-05-26T20:14:00.015Z,61.49
2019-05-26T20:18:02.023Z,61.86
2019-05-26T20:22:04.605Z,62.56
2019-05-26T20:26:08.172Z,62.98
2019-05-26T20:30:12.257Z,63.45
2019-05-26T20:34:14.333Z,63.96
2019-05-26T20:38:16.225Z,64.80
2019-05-26T20:42:18.180Z,65.60
2019-05-26T20:46:20.098Z,65.95
2019-05-26T20:50:29.178Z,67.20
2019-05-26T20:54:26.248Z,67.73
2019-05-26T20:58:28.432Z,67.91
2019-05-26T21:02:30.336Z,68.13
2019-05-26T21:06:32.239Z,68.41
2019-05-26T21:10:34.230Z,68.58
2019-05-26T21:14:36.140Z,68.95
2019-05-26T21:18:38.063Z,69.47
2019-05-26T21:22:39.999Z,69.62
2019-05-26T21:26:42.133Z,70.67
2019-05-26T21:30:44.065Z,70.67
2019-05-26T21:34:47.176Z,70.86
2019-05-26T21:38:49.184Z,71.12
2019-05-26T21:42:52.115Z,71.29
2019-05-26T21:46:54.061Z,71.32
2019-05-26T21:50:55.954Z,71.78
2019-05-26T21:54:58.220Z,71.72
2019-05-26T21:59:00.125Z,72.00
2019-05-26T22:03:02.057Z,72.26
2019-05-26T22:07:03.970Z,72.53
2019-05-26T22:11:05.895Z,73.17
2019-05-26T22:15:10.103Z,73.93
2019-05-26T22:19:12.043Z,74.05
2019-05-26T22:23:13.937Z,74.04
2019-05-26T22:27:15.847Z,74.32
2019-05-26T22:31:17.746Z,74.94
2019-05-26T22:35:19.676Z,74.75
2019-05-26T22:39:21.571Z,74.99
2019-05-26T22:43:23.481Z,75.15
2019-05-26T22:47:25.399Z,75.27
2019-05-26T22:51:27.376Z,75.43
2019-05-26T22:55:29.302Z,75.76
2019-05-26T22:59:31.209Z,76.05
2019-05-26T23:03:33.126Z,76.14
2019-05-26T23:07:35.028Z,76.52
2019-05-26T23:11:38.037Z,77.00
2019-05-26T23:15:40.031Z,77.13
2019-05-26T23:19:41.944Z,76.77
2019-05-26T23:23:43.841Z,76.70
2019-05-26T23:27:45.765Z,76.93
2019-05-26T23:31:47.671Z,76.67
2019-05-26T23:35:49.584Z,77.25
2019-05-26T23:39:51.495Z,77.46
2019-05-26T23:43:53.442Z,77.83
2019-05-26T23:47:55.342Z,78.57
2019-05-26T23:51:58.309Z,79.11
2019-05-26T23:56:00.209Z,79.56
